Time;durP1;ratioP1;P1;durP2;ratioP2;P2;SDS_P1;SDS_P2;PMS_P1;PMS_P2;Temp;Humidity;BMP_temperature;BMP_pressure;BME280_temperature;BME280_humidity;BME280_pressure;Samples;Min_cycle;Max_cycle;Signal;HPM_P1;HPM_P2
2021/07/14 00:00:40;;;;;;;15.40;12.63;;;;;;;20.11;72.03;97471.72;1743014;82;21024;-80
2021/07/14 00:03:08;;;;;;;14.23;12.43;;;;;;;20.12;71.95;97477.94;1707136;84;21507;-81
2021/07/14 00:05:34;;;;;;;15.98;13.55;;;;;;;20.12;71.83;97480.16;1721060;82;21021;-80
2021/07/14 00:08:01;;;;;;;15.85;12.15;;;;;;;20.09;72.33;97479.03;1736052;82;20985;-80
2021/07/14 00:10:32;;;;;;;13.90;11.97;;;;;;;20.05;72.56;97484.27;1679180;85;20990;-80
2021/07/14 00:13:11;;;;;;;13.78;12.30;;;;;;;20.09;73.81;97482.23;1651645;87;21024;-80
2021/07/14 00:23:40;;;;;;;16.65;12.23;;;;;;;20.10;73.61;97482.08;1727449;82;20981;-80
2021/07/14 00:26:07;;;;;;;14.40;12.18;;;;;;;20.09;74.29;97480.88;1743058;82;21033;-80
2021/07/14 00:28:34;;;;;;;16.90;12.95;;;;;;;20.05;74.05;97485.14;1726521;82;21465;-80
2021/07/14 00:31:02;;;;;;;20.12;13.53;;;;;;;20.03;74.00;97481.73;1716596;82;20969;-80
2021/07/14 00:33:30;;;;;;;17.85;13.65;;;;;;;20.03;74.48;97482.20;1678989;85;21025;-79
2021/07/14 00:35:58;;;;;;;16.80;13.58;;;;;;;19.98;75.18;97487.08;1671615;85;21373;-79
2021/07/14 00:38:24;;;;;;;17.02;13.65;;;;;;;19.93;75.11;97486.03;1730637;83;21459;-79
2021/07/14 00:40:50;;;;;;;16.60;13.50;;;;;;;19.90;75.31;97488.47;1719076;82;21054;-79
2021/07/14 00:43:18;;;;;;;17.67;13.75;;;;;;;19.91;73.95;97483.48;1739259;82;20974;-79
2021/07/14 00:45:45;;;;;;;16.37;12.93;;;;;;;19.89;74.50;97487.27;1743047;82;21459;-80
2021/07/14 00:48:15;;;;;;;16.12;12.88;;;;;;;19.86;75.35;97488.36;1742745;82;21040;-79
2021/07/14 00:50:43;;;;;;;16.02;13.22;;;;;;;19.81;73.93;97490.55;1729865;82;21387;-79
2021/07/14 00:53:10;;;;;;;18.80;14.40;;;;;;;19.76;74.55;97490.00;1694963;84;21018;-79
2021/07/14 00:55:36;;;;;;;15.78;13.78;;;;;;;19.69;74.21;97488.77;1725885;83;20973;-78
2021/07/14 00:58:03;;;;;;;15.70;13.70;;;;;;;19.63;73.65;97494.98;1740197;82;21061;-78
2021/07/14 01:00:30;;;;;;;17.80;14.05;;;;;;;19.61;73.64;97495.59;1723598;82;21009;-79
2021/07/14 01:02:56;;;;;;;17.82;14.18;;;;;;;19.56;75.85;97495.55;1713363;84;21011;-79
2021/07/14 01:05:30;;;;;;;15.70;13.98;;;;;;;19.48;75.52;97492.94;1714870;82;21009;-78
2021/07/14 01:08:06;;;;;;;15.78;14.15;;;;;;;19.41;74.39;97488.13;1715291;82;21387;-78
2021/07/14 01:10:40;;;;;;;18.05;14.55;;;;;;;19.34;74.95;97487.72;1722268;82;20942;-78
2021/07/14 01:13:43;;;;;;;17.77;14.63;;;;;;;19.31;74.38;97492.84;1721424;82;21061;-78
2021/07/14 01:16:20;;;;;;;18.52;14.53;;;;;;;19.25;75.27;97490.61;1713593;84;21425;-78
2021/07/14 01:19:07;;;;;;;16.55;14.85;;;;;;;19.22;75.00;97490.35;1713527;84;21048;-79
2021/07/14 01:21:40;;;;;;;17.25;15.00;;;;;;;19.19;74.81;97493.25;1713156;84;20985;-79
2021/07/14 01:24:37;;;;;;;18.37;14.07;;;;;;;19.18;75.74;97494.73;1713549;84;21474;-78
2021/07/14 01:27:16;;;;;;;16.32;14.63;;;;;;;19.12;75.76;97498.24;1688990;85;21520;-78
2021/07/14 01:29:49;;;;;;;17.05;14.78;;;;;;;19.10;75.21;97492.61;1724029;82;20981;-78
2021/07/14 01:32:20;;;;;;;15.90;14.15;;;;;;;19.08;75.70;97496.75;1745406;82;21393;-78
2021/07/14 01:34:51;;;;;;;16.77;14.43;;;;;;;19.09;75.78;97492.21;1742746;82;21017;-78
2021/07/14 01:37:22;;;;;;;16.15;13.85;;;;;;;19.10;76.13;97482.70;1723969;82;21454;-78
2021/07/14 01:39:52;;;;;;;18.60;13.83;;;;;;;19.14;76.69;97480.65;1679351;85;21415;-79
2021/07/14 01:42:24;;;;;;;15.15;13.05;;;;;;;19.15;77.24;97486.89;1743089;82;21016;-79
2021/07/14 01:44:55;;;;;;;17.00;13.43;;;;;;;19.14;77.30;97487.36;1743147;82;21445;-80
2021/07/14 01:47:23;;;;;;;15.38;12.53;;;;;;;19.13;77.27;97478.47;1720352;82;21506;-80
2021/07/14 01:49:52;;;;;;;16.35;12.55;;;;;;;19.12;77.50;97485.28;1713609;84;21044;-79
2021/07/14 01:52:23;;;;;;;15.32;12.70;;;;;;;19.16;77.54;97491.28;1713551;84;21032;-79
2021/07/14 01:54:53;;;;;;;15.60;13.55;;;;;;;19.16;77.35;97486.78;1713622;84;21033;-79
2021/07/14 01:57:22;;;;;;;13.45;12.05;;;;;;;19.21;77.46;97490.46;1713710;84;20989;-79
2021/07/14 01:59:51;;;;;;;20.25;12.65;;;;;;;19.24;77.17;97490.25;1714002;82;21409;-79
2021/07/14 02:02:21;;;;;;;14.07;12.65;;;;;;;19.28;77.06;97490.41;1733280;82;21010;-79
2021/07/14 02:04:48;;;;;;;16.12;13.15;;;;;;;19.31;77.15;97486.63;1734954;82;21487;-79
2021/07/14 02:07:20;;;;;;;18.52;13.48;;;;;;;19.28;77.39;97494.91;1742809;81;21028;-78
2021/07/14 02:09:48;;;;;;;15.28;13.30;;;;;;;19.32;77.24;97496.39;1731147;82;20981;-79
2021/07/14 02:12:22;;;;;;;15.53;13.15;;;;;;;19.30;78.21;97499.70;1713452;82;21505;-80
2021/07/14 02:15:06;;;;;;;15.28;12.33;;;;;;;19.22;76.84;97497.07;1713575;84;21014;-79
2021/07/14 02:18:07;;;;;;;13.65;12.25;;;;;;;19.16;76.64;97501.55;1713822;82;21444;-79
2021/07/14 02:20:34;;;;;;;14.58;12.88;;;;;;;19.12;76.63;97507.64;1715302;82;21417;-80
2021/07/14 02:23:09;;;;;;;14.35;12.68;;;;;;;19.07;77.28;97508.46;1742876;82;21454;-80
2021/07/14 02:25:36;;;;;;;14.53;13.00;;;;;;;19.02;77.16;97514.63;1743235;82;21021;-80
2021/07/14 02:28:03;;;;;;;14.85;13.25;;;;;;;18.99;77.58;97510.30;1742065;82;21005;-81
2021/07/14 02:30:30;;;;;;;16.02;13.85;;;;;;;18.93;77.24;97508.56;1670567;85;21072;-79
2021/07/14 02:33:04;;;;;;;17.85;13.90;;;;;;;18.88;77.26;97508.04;1714599;82;20962;-79
2021/07/14 02:35:34;;;;;;;15.30;13.53;;;;;;;18.84;76.76;97515.43;1713640;84;21001;-79
2021/07/14 02:38:26;;;;;;;22.17;13.35;;;;;;;18.80;77.59;97524.20;1713726;84;21443;-80
2021/07/14 02:41:14;;;;;;;19.90;14.43;;;;;;;18.74;78.18;97521.95;1714078;82;20977;-80
2021/07/14 02:43:46;;;;;;;18.60;14.90;;;;;;;18.67;77.80;97530.92;1734180;82;20950;-79
2021/07/14 02:46:23;;;;;;;18.15;14.73;;;;;;;18.59;78.66;97529.25;1743094;82;20974;-79
2021/07/14 02:48:47;;;;;;;16.15;14.50;;;;;;;18.56;78.01;97533.00;1688637;83;21035;-79
2021/07/14 02:51:17;;;;;;;17.57;15.35;;;;;;;18.54;77.92;97541.66;1717964;83;21017;-79
2021/07/14 02:53:50;;;;;;;17.90;15.80;;;;;;;18.51;79.57;97528.45;1718809;83;21049;-79
2021/07/14 02:56:20;;;;;;;17.82;15.63;;;;;;;18.52;78.83;97528.81;1719118;83;20958;-79
2021/07/14 02:58:55;;;;;;;22.67;18.48;;;;;;;18.56;78.83;97533.51;1723225;82;20997;-79
2021/07/14 03:01:23;;;;;;;22.50;19.02;;;;;;;18.56;79.18;97531.66;1751483;82;20965;-79
2021/07/14 03:03:51;;;;;;;26.30;19.32;;;;;;;18.57;78.56;97529.85;1749718;82;20992;-80
2021/07/14 03:06:19;;;;;;;24.92;20.15;;;;;;;18.60;79.38;97531.83;1718954;83;21419;-80
2021/07/14 03:08:49;;;;;;;22.87;19.80;;;;;;;18.64;78.85;97530.28;1720983;83;21453;-80
2021/07/14 03:11:18;;;;;;;18.12;16.15;;;;;;;18.67;78.70;97524.21;1721901;83;21394;-80
2021/07/14 03:13:45;;;;;;;23.60;15.93;;;;;;;18.68;79.32;97527.77;1721229;83;21021;-80
2021/07/14 03:16:13;;;;;;;18.12;15.48;;;;;;;18.67;79.10;97529.58;1712067;83;21030;-80
2021/07/14 03:18:46;;;;;;;17.07;15.13;;;;;;;18.72;78.94;97529.23;1718654;83;21044;-80
2021/07/14 03:21:10;;;;;;;21.40;15.98;;;;;;;18.78;79.06;97534.67;1715593;83;21005;-80
2021/07/14 03:23:39;;;;;;;23.22;16.65;;;;;;;18.83;78.81;97539.22;1718455;83;21021;-80
2021/07/14 03:26:06;;;;;;;19.02;15.48;;;;;;;18.83;80.38;97541.91;1719008;83;21048;-81
2021/07/14 03:28:34;;;;;;;20.65;16.37;;;;;;;18.83;80.18;97546.81;1718177;82;21001;-79
2021/07/14 03:31:02;;;;;;;17.67;15.25;;;;;;;18.83;79.00;97549.97;1694232;82;21388;-79
2021/07/14 03:33:31;;;;;;;21.48;16.52;;;;;;;18.82;78.79;97545.56;1719061;83;21415;-80
2021/07/14 03:36:00;;;;;;;16.62;14.80;;;;;;;18.81;79.23;97548.72;1716347;83;21002;-80
2021/07/14 03:38:29;;;;;;;19.80;13.95;;;;;;;18.81;78.53;97559.96;1690116;85;21479;-80
2021/07/14 03:40:57;;;;;;;18.80;14.90;;;;;;;18.79;78.17;97555.17;1662707;85;21086;-79
2021/07/14 03:43:27;;;;;;;17.48;14.98;;;;;;;18.79;78.12;97547.98;1706015;83;20933;-80
2021/07/14 03:45:56;;;;;;;16.50;14.65;;;;;;;18.81;77.78;97544.70;1722345;83;21004;-78
2021/07/14 03:48:24;;;;;;;19.82;15.10;;;;;;;18.80;78.01;97547.48;1737496;82;21001;-79
2021/07/14 03:50:52;;;;;;;16.60;14.15;;;;;;;18.78;77.29;97545.41;1692113;85;21067;-79
2021/07/14 03:53:21;;;;;;;17.65;15.05;;;;;;;18.71;78.36;97551.69;1704343;84;20985;-78
2021/07/14 03:55:48;;;;;;;19.30;15.00;;;;;;;18.66;78.10;97550.68;1693984;84;20997;-80
2021/07/14 03:58:16;;;;;;;17.90;14.60;;;;;;;18.64;77.92;97544.55;1676760;86;21094;-78
2021/07/14 04:00:45;;;;;;;19.35;15.00;;;;;;;18.64;77.55;97539.17;1676871;86;21464;-78
2021/07/14 04:03:11;;;;;;;17.73;15.30;;;;;;;18.65;78.56;97538.23;1676874;86;21480;-78
2021/07/14 04:05:45;;;;;;;21.02;16.77;;;;;;;18.67;78.55;97547.49;1676917;86;21003;-78
2021/07/14 04:08:21;;;;;;;21.45;15.85;;;;;;;18.65;77.95;97543.60;1683522;84;21017;-78
2021/07/14 04:10:47;;;;;;;20.20;16.07;;;;;;;18.68;78.78;97556.78;1685513;84;20982;-80
2021/07/14 04:13:17;;;;;;;19.12;16.00;;;;;;;18.69;78.73;97557.16;1702987;84;21032;-79
2021/07/14 04:15:43;;;;;;;18.42;15.32;;;;;;;18.72;78.47;97551.58;1705174;84;21028;-80
2021/07/14 04:18:12;;;;;;;17.92;15.35;;;;;;;18.77;78.00;97557.12;1716895;83;21163;-80
2021/07/14 04:20:40;;;;;;;16.73;14.93;;;;;;;18.81;78.39;97562.65;1692140;83;20951;-80
2021/07/14 04:23:06;;;;;;;21.12;15.70;;;;;;;18.84;77.69;97561.07;1704933;84;21060;-80
2021/07/14 04:25:33;;;;;;;20.25;14.73;;;;;;;18.88;77.86;97566.60;1696847;84;21456;-80
2021/07/14 04:28:00;;;;;;;18.40;14.00;;;;;;;18.92;77.64;97564.55;1692563;83;21020;-79
2021/07/14 04:30:26;;;;;;;17.40;14.07;;;;;;;18.97;77.50;97556.55;1692183;85;21005;-80
2021/07/14 04:32:53;;;;;;;18.42;13.00;;;;;;;19.05;77.47;97549.33;1694807;83;21041;-80
2021/07/14 04:35:19;;;;;;;18.23;13.93;;;;;;;19.13;77.53;97547.43;1704072;83;20962;-80
2021/07/14 04:37:49;;;;;;;16.73;14.00;;;;;;;19.19;77.33;97548.83;1714174;83;21021;-80
2021/07/14 04:40:14;;;;;;;19.12;14.07;;;;;;;19.30;77.27;97539.99;1720692;83;21033;-81
2021/07/14 04:42:41;;;;;;;16.65;14.05;;;;;;;19.40;77.08;97539.69;1720989;83;21005;-81
2021/07/14 04:45:08;;;;;;;17.42;14.43;;;;;;;19.50;76.92;97537.17;1701465;83;21479;-81
2021/07/14 04:47:35;;;;;;;14.63;13.03;;;;;;;19.61;76.78;97537.26;1691621;84;21005;-80
2021/07/14 04:50:05;;;;;;;19.20;14.53;;;;;;;19.72;76.52;97536.44;1683810;85;20998;-80
2021/07/14 04:52:32;;;;;;;19.12;14.45;;;;;;;19.85;76.35;97536.37;1706480;82;21379;-80
2021/07/14 04:54:58;;;;;;;18.37;14.83;;;;;;;19.95;76.11;97531.64;1703973;84;20959;-80
2021/07/14 04:57:25;;;;;;;19.73;14.87;;;;;;;20.03;75.95;97536.87;1663136;85;20993;-79
2021/07/14 04:59:53;;;;;;;17.70;14.65;;;;;;;20.10;75.66;97531.84;1730247;82;21032;-79
2021/07/14 05:02:19;;;;;;;20.00;14.85;;;;;;;20.22;75.56;97538.13;1678680;85;21031;-79
2021/07/14 05:04:46;;;;;;;18.30;14.80;;;;;;;20.33;75.44;97531.92;1678907;85;21043;-79
2021/07/14 05:07:13;;;;;;;16.67;14.98;;;;;;;20.37;75.05;97533.88;1679122;85;20992;-79
2021/07/14 05:09:40;;;;;;;23.52;15.83;;;;;;;20.46;74.94;97537.20;1678892;85;21592;-80
2021/07/14 05:12:06;;;;;;;20.32;15.50;;;;;;;20.56;74.59;97535.52;1679139;85;21016;-79
2021/07/14 05:14:33;;;;;;;20.68;14.85;;;;;;;20.65;74.69;97527.22;1678979;85;21015;-80
2021/07/14 05:17:00;;;;;;;19.82;14.87;;;;;;;20.77;74.52;97528.57;1673986;85;21602;-79
2021/07/14 05:19:26;;;;;;;17.37;15.48;;;;;;;20.87;74.40;97531.41;1678413;85;21004;-79
2021/07/14 05:21:54;;;;;;;21.77;15.55;;;;;;;20.95;74.28;97535.70;1682307;85;21073;-80
2021/07/14 05:24:21;;;;;;;16.90;15.08;;;;;;;21.04;73.88;97531.41;1725748;82;21443;-80
2021/07/14 05:26:47;;;;;;;17.62;14.40;;;;;;;21.15;73.88;97532.77;1719285;82;21017;-81
2021/07/14 05:29:14;;;;;;;17.67;14.98;;;;;;;21.23;73.85;97538.38;1714110;83;21444;-81
2021/07/14 05:31:40;;;;;;;26.97;16.25;;;;;;;21.32;73.88;97539.48;1713476;84;20990;-80
2021/07/14 05:34:07;;;;;;;19.05;15.15;;;;;;;21.41;73.47;97535.66;1713531;84;20991;-80
2021/07/14 05:36:33;;;;;;;23.47;15.60;;;;;;;21.49;73.31;97539.45;1720590;82;20952;-79
2021/07/14 05:39:00;;;;;;;20.68;14.87;;;;;;;21.59;73.02;97538.70;1713863;82;21474;-80
2021/07/14 05:41:27;;;;;;;19.37;14.95;;;;;;;21.68;72.86;97535.25;1713600;84;21045;-80
2021/07/14 05:43:55;;;;;;;22.75;18.25;;;;;;;21.77;72.69;97526.91;1712873;82;21118;-86
2021/07/14 05:46:22;;;;;;;22.45;15.60;;;;;;;21.88;72.47;97528.72;1718824;82;21001;-78
2021/07/14 05:48:49;;;;;;;20.55;14.98;;;;;;;21.98;72.41;97522.03;1724699;82;21069;-80
2021/07/14 05:51:16;;;;;;;18.87;15.40;;;;;;;22.07;72.21;97527.14;1720111;82;21004;-79
2021/07/14 05:53:45;;;;;;;20.05;14.60;;;;;;;22.15;72.16;97521.95;1722833;82;20967;-81
2021/07/14 05:56:11;;;;;;;20.08;16.00;;;;;;;22.24;71.86;97524.36;1725461;82;21022;-76
2021/07/14 05:58:38;;;;;;;18.67;15.13;;;;;;;22.35;71.75;97527.02;1720509;82;20989;-78
2021/07/14 06:01:04;;;;;;;19.85;15.40;;;;;;;22.47;71.49;97526.45;1714311;82;20966;-76
2021/07/14 06:03:31;;;;;;;20.35;13.88;;;;;;;22.60;71.18;97521.35;1715269;84;20993;-76
2021/07/14 06:05:58;;;;;;;19.55;14.45;;;;;;;22.72;71.09;97518.95;1715765;84;21455;-76
2021/07/14 06:08:25;;;;;;;17.05;14.45;;;;;;;22.83;70.91;97518.50;1722387;82;21541;-76
2021/07/14 06:10:52;;;;;;;16.80;15.03;;;;;;;22.95;69.94;97514.69;1724204;82;21033;-79
2021/07/14 06:13:19;;;;;;;19.20;14.10;;;;;;;23.05;70.09;97504.77;1729422;82;21002;-79
2021/07/14 06:15:46;;;;;;;16.52;14.60;;;;;;;23.18;69.81;97510.45;1727033;82;21032;-80
2021/07/14 06:18:13;;;;;;;23.18;14.73;;;;;;;23.30;69.74;97505.79;1717729;82;21010;-79
2021/07/14 06:20:40;;;;;;;15.88;14.20;;;;;;;23.39;69.59;97506.34;1728621;82;21080;-77
2021/07/14 06:23:08;;;;;;;16.73;14.75;;;;;;;23.49;69.47;97496.88;1719565;82;21061;-79
2021/07/14 06:25:35;;;;;;;15.80;14.05;;;;;;;23.59;69.24;97499.10;1692522;84;21457;-76
2021/07/14 06:28:05;;;;;;;17.85;14.28;;;;;;;23.69;69.00;97503.19;1726255;82;21402;-76
2021/07/14 06:30:31;;;;;;;19.90;14.53;;;;;;;23.79;67.19;97497.77;1724627;82;20966;-79
2021/07/14 06:33:01;;;;;;;18.30;14.05;;;;;;;23.89;67.96;97496.43;1733348;82;21033;-76
2021/07/14 06:35:27;;;;;;;17.20;13.65;;;;;;;23.99;67.46;97493.70;1742789;82;21065;-76
2021/07/14 06:37:54;;;;;;;23.83;19.42;;;;;;;24.08;67.31;97491.49;1735669;82;21439;-81
2021/07/14 06:40:21;;;;;;;19.62;14.95;;;;;;;24.20;67.18;97492.75;1730342;83;21399;-79
2021/07/14 06:42:49;;;;;;;15.00;13.48;;;;;;;24.29;66.60;97485.59;1733110;82;20989;-81
2021/07/14 06:45:17;;;;;;;17.02;13.32;;;;;;;24.36;66.00;97484.88;1733062;82;21008;-82
2021/07/14 06:47:44;;;;;;;22.80;13.10;;;;;;;24.46;66.06;97480.77;1678812;85;21009;-82
2021/07/14 06:50:14;;;;;;;16.35;12.58;;;;;;;24.56;65.71;97487.53;1742782;82;21013;-77
2021/07/14 06:52:42;;;;;;;16.77;12.30;;;;;;;24.65;65.50;97488.00;1742583;82;21013;-74
2021/07/14 06:55:11;;;;;;;17.52;12.82;;;;;;;24.74;64.56;97488.13;1675927;85;20984;-75
2021/07/14 06:57:40;;;;;;;14.70;13.20;;;;;;;24.84;64.30;97487.62;1677154;85;21141;-75
2021/07/14 07:00:12;;;;;;;17.55;12.75;;;;;;;24.93;63.58;97487.22;1677182;85;21001;-75
2021/07/14 07:02:41;;;;;;;19.23;13.18;;;;;;;25.01;62.92;97483.27;1711689;84;21021;-75
2021/07/14 07:05:08;;;;;;;19.10;13.72;;;;;;;25.10;63.10;97491.48;1724854;82;21007;-77
2021/07/14 07:07:35;;;;;;;14.10;12.50;;;;;;;25.17;62.62;97485.82;1714153;82;21497;-76
2021/07/14 07:10:07;;;;;;;13.80;12.37;;;;;;;25.26;62.14;97490.83;1718661;82;21068;-77
2021/07/14 07:12:34;;;;;;;15.15;11.97;;;;;;;25.34;61.43;97489.58;1724799;82;21065;-77
2021/07/14 07:15:05;;;;;;;14.35;12.07;;;;;;;25.55;61.27;97481.69;1693081;85;20968;-77
2021/07/14 07:17:33;;;;;;;13.50;11.18;;;;;;;25.55;61.27;97481.69;1693335;85;21014;-79
2021/07/14 07:20:01;;;;;;;13.00;11.63;;;;;;;25.67;60.71;97482.32;1731892;82;21029;-81
2021/07/14 07:22:28;;;;;;;14.28;12.73;;;;;;;25.80;60.43;97481.44;1677630;85;21014;-81
2021/07/14 07:24:56;;;;;;;14.65;13.00;;;;;;;25.93;59.78;97470.68;1719002;82;21047;-81
2021/07/14 07:27:23;;;;;;;13.55;12.00;;;;;;;26.03;59.86;97475.52;1719332;82;21468;-86
2021/07/14 07:29:50;;;;;;;12.98;11.68;;;;;;;26.14;59.62;97475.78;1725983;82;20965;-80
2021/07/14 07:32:16;;;;;;;15.00;12.53;;;;;;;26.23;58.95;97476.20;1728500;82;21001;-80
2021/07/14 07:34:45;;;;;;;12.98;11.63;;;;;;;26.34;56.99;97466.98;1738427;82;20954;-79
2021/07/14 07:37:11;;;;;;;16.00;11.97;;;;;;;26.45;57.98;97466.36;1737574;82;21025;-81
2021/07/14 07:39:39;;;;;;;16.82;11.93;;;;;;;26.54;57.47;97461.83;1742960;82;21069;-81
2021/07/14 07:42:08;;;;;;;24.77;21.68;;;;;;;26.61;57.58;97462.37;1742939;82;21017;-81
2021/07/14 07:44:34;;;;;;;15.45;12.00;;;;;;;26.69;56.57;97468.89;1715412;82;21024;-81
2021/07/14 07:47:01;;;;;;;14.03;11.60;;;;;;;26.74;56.90;97459.21;1695351;84;21024;-81
2021/07/14 07:49:27;;;;;;;15.08;11.95;;;;;;;26.81;57.16;97455.34;1718859;83;21032;-81
2021/07/14 07:51:54;;;;;;;12.78;11.53;;;;;;;26.88;56.68;97455.55;1721041;83;21467;-81
2021/07/14 07:54:21;;;;;;;14.15;12.60;;;;;;;26.97;55.77;97450.53;1726347;82;21025;-79
2021/07/14 07:56:47;;;;;;;15.00;12.55;;;;;;;27.07;56.19;97456.34;1725167;82;21009;-80
2021/07/14 07:59:14;;;;;;;13.28;11.90;;;;;;;27.15;56.10;97465.88;1707930;82;21026;-78
2021/07/14 08:01:40;;;;;;;18.60;12.25;;;;;;;27.23;56.20;97454.20;1735207;82;20965;-78
2021/07/14 08:04:08;;;;;;;15.32;10.55;;;;;;;27.30;55.40;97456.58;1712875;82;21047;-79
2021/07/14 08:06:35;;;;;;;13.18;11.85;;;;;;;27.38;53.05;97455.26;1712221;82;21444;-79
2021/07/14 08:09:04;;;;;;;13.20;11.63;;;;;;;27.44;53.94;97460.52;1721698;82;21044;-81
2021/07/14 08:11:31;;;;;;;11.12;9.80;;;;;;;27.52;54.05;97459.19;1722869;82;21028;-79
2021/07/14 08:13:59;;;;;;;12.15;9.95;;;;;;;27.62;53.03;97459.08;1724440;82;21050;-79
2021/07/14 08:16:28;;;;;;;12.60;10.53;;;;;;;27.72;52.00;97449.88;1725601;82;21021;-79
2021/07/14 08:18:56;;;;;;;15.18;10.70;;;;;;;27.81;51.10;97447.51;1717858;82;21025;-79
2021/07/14 08:21:23;;;;;;;15.30;13.05;;;;;;;27.89;50.28;97447.52;1728188;82;20997;-79
2021/07/14 08:23:50;;;;;;;33.90;28.32;;;;;;;27.94;50.15;97442.95;1728371;82;21081;-79
2021/07/14 08:26:17;;;;;;;13.83;12.37;;;;;;;28.00;49.67;97447.70;1718741;82;21036;-78
2021/07/14 08:28:44;;;;;;;12.85;11.55;;;;;;;28.06;49.52;97442.93;1721023;82;21351;-80
2021/07/14 08:31:10;;;;;;;13.58;12.05;;;;;;;28.14;49.93;97443.96;1725338;82;21338;-86
2021/07/14 08:33:37;;;;;;;12.80;11.40;;;;;;;28.20;50.01;97436.45;1723370;82;21040;-79
2021/07/14 08:36:04;;;;;;;12.00;10.70;;;;;;;28.27;49.53;97437.48;1721216;82;21017;-76
2021/07/14 08:38:32;;;;;;;13.58;11.95;;;;;;;28.35;49.48;97430.34;1676088;85;21033;-84
2021/07/14 08:41:01;;;;;;;15.35;11.35;;;;;;;28.41;49.14;97426.91;1714738;83;21024;-76
2021/07/14 08:43:34;;;;;;;12.05;10.90;;;;;;;28.49;48.89;97429.62;1717969;82;20989;-78
2021/07/14 08:45:59;;;;;;;15.23;11.40;;;;;;;28.58;49.01;97426.36;1727413;82;21000;-79
2021/07/14 08:48:27;;;;;;;13.88;11.93;;;;;;;28.65;48.65;97432.80;1725786;82;21028;-79
2021/07/14 08:50:58;;;;;;;17.02;11.45;;;;;;;28.74;48.63;97430.92;1721606;82;21443;-78
2021/07/14 08:53:26;;;;;;;13.55;10.43;;;;;;;28.82;48.98;97429.50;1717215;82;20986;-81
2021/07/14 08:55:56;;;;;;;14.95;10.50;;;;;;;28.92;47.53;97432.06;1719455;82;21469;-81
2021/07/14 08:58:25;;;;;;;15.20;11.35;;;;;;;28.96;47.28;97437.52;1723855;82;20973;-81
2021/07/14 09:00:55;;;;;;;14.90;9.80;;;;;;;29.03;46.99;97428.11;1720577;82;20973;-84
2021/07/14 09:03:24;;;;;;;13.43;10.85;;;;;;;29.09;46.07;97444.26;1724705;82;22067;-82
2021/07/14 09:05:50;;;;;;;13.83;9.85;;;;;;;29.18;46.28;97444.56;1728097;82;20989;-82
2021/07/14 09:08:17;;;;;;;14.53;10.58;;;;;;;29.26;46.24;97446.39;1729984;82;21438;-82
2021/07/14 09:10:45;;;;;;;13.60;10.48;;;;;;;29.32;46.04;97445.70;1725290;82;21458;-82
2021/07/14 09:13:14;;;;;;;10.50;9.50;;;;;;;29.38;45.68;97451.80;1725186;82;21454;-81
2021/07/14 09:15:47;;;;;;;11.00;9.90;;;;;;;29.50;46.07;97445.95;1723562;82;21008;-81
2021/07/14 09:18:15;;;;;;;14.13;9.78;;;;;;;29.57;45.56;97441.98;1727821;82;20934;-83
2021/07/14 09:20:43;;;;;;;12.53;10.13;;;;;;;29.63;45.33;97442.62;1722593;82;21423;-82
2021/07/14 09:23:17;;;;;;;13.18;10.13;;;;;;;29.66;45.43;97449.09;1725268;82;21504;-82
2021/07/14 09:25:48;;;;;;;11.75;10.60;;;;;;;29.72;44.96;97446.99;1723954;82;20999;-82
2021/07/14 09:28:18;;;;;;;14.93;11.50;;;;;;;29.76;43.54;97446.97;1731016;82;21488;-83
2021/07/14 09:30:49;;;;;;;11.73;9.88;;;;;;;29.85;44.21;97442.28;1737884;82;21001;-87
2021/07/14 09:33:19;;;;;;;14.50;10.20;;;;;;;29.96;44.37;97438.28;1717092;81;21156;-84
2021/07/14 09:35:50;;;;;;;11.28;10.15;;;;;;;30.06;44.29;97434.45;1713982;81;21021;-82
2021/07/14 09:38:23;;;;;;;10.85;9.75;;;;;;;30.14;44.45;97430.31;1724870;82;21130;-82
2021/07/14 09:41:17;;;;;;;12.82;10.48;;;;;;;30.23;44.24;97442.02;1712693;84;21028;-82
2021/07/14 09:43:49;;;;;;;12.65;10.50;;;;;;;30.29;43.77;97441.26;1712955;84;21079;-81
2021/07/14 09:46:19;;;;;;;11.20;10.05;;;;;;;30.35;43.88;97443.24;1713932;82;21024;-82
2021/07/14 09:48:54;;;;;;;11.88;10.63;;;;;;;30.41;43.06;97443.02;1721149;82;21571;-80
2021/07/14 09:51:31;;;;;;;11.65;10.58;;;;;;;30.47;43.26;97440.91;1720093;82;21011;-82
2021/07/14 09:54:01;;;;;;;11.38;10.20;;;;;;;30.53;42.96;97449.75;1721619;82;21129;-82
2021/07/14 09:56:33;;;;;;;12.65;10.05;;;;;;;30.60;43.08;97447.63;1725394;82;21068;-80
2021/07/14 09:59:15;;;;;;;11.60;10.43;;;;;;;30.67;42.88;97442.58;1724892;82;21059;-81
2021/07/14 10:01:45;;;;;;;;;;;;;;;30.71;41.54;97442.25;1731599;82;21040;-82
2021/07/14 10:04:23;;;;;;;14.40;10.30;;;;;;;30.80;42.62;97447.42;1719308;82;20127;-82
2021/07/14 10:07:14;;;;;;;14.05;10.95;;;;;;;30.88;41.90;97442.91;1725134;82;21029;-80
2021/07/14 10:09:42;;;;;;;12.70;11.08;;;;;;;30.95;42.64;97438.36;1720831;82;21063;-83
2021/07/14 10:12:39;;;;;;;11.80;10.60;;;;;;;31.07;42.92;97435.48;1712319;84;21002;-81
2021/07/14 10:15:18;;;;;;;14.20;11.53;;;;;;;31.19;43.07;97427.63;1741739;82;21490;-84
2021/07/14 10:17:49;;;;;;;12.23;10.95;;;;;;;31.27;42.88;97435.38;1729708;82;21061;-84
2021/07/14 10:20:33;;;;;;;12.65;11.48;;;;;;;31.38;42.69;97441.75;1712179;84;21081;-87
2021/07/14 10:23:09;;;;;;;12.63;10.32;;;;;;;31.48;42.06;97449.13;1712742;84;20993;-89
2021/07/14 10:25:38;;;;;;;11.83;10.72;;;;;;;31.54;41.16;97439.30;1717132;82;21048;-84
2021/07/14 10:28:08;;;;;;;11.28;10.28;;;;;;;31.59;41.38;97436.00;1717960;82;21458;-85
2021/07/14 10:30:39;;;;;;;11.35;10.23;;;;;;;31.66;41.29;97431.42;1720637;82;21879;-85
2021/07/14 10:33:09;;;;;;;11.50;10.40;;;;;;;31.78;41.45;97433.13;1722332;82;20932;-84
2021/07/14 10:35:42;;;;;;;14.15;10.38;;;;;;;31.90;41.40;97434.84;1716967;82;21060;-86
2021/07/14 10:38:28;;;;;;;11.70;9.90;;;;;;;32.04;41.44;97424.84;1734458;81;21001;-85
2021/07/14 10:40:56;;;;;;;11.30;10.20;;;;;;;32.12;39.90;97423.85;1742163;82;21037;-84
2021/07/14 10:43:30;;;;;;;12.40;9.93;;;;;;;32.31;40.28;97421.47;1741174;82;21009;-85
2021/07/14 10:45:57;;;;;;;13.72;10.48;;;;;;;32.51;40.27;97416.17;1741991;82;21067;-86
2021/07/14 10:48:26;;;;;;;20.02;18.02;;;;;;;32.73;40.17;97417.45;1741115;82;21439;-85
2021/07/14 10:50:55;;;;;;;14.18;10.15;;;;;;;33.17;39.58;97426.36;1711678;84;21065;-84
2021/07/14 10:53:24;;;;;;;10.15;9.10;;;;;;;33.95;37.95;97430.58;1749435;82;21025;-83
2021/07/14 10:55:54;;;;;;;10.93;8.90;;;;;;;34.61;34.22;97417.58;1738364;82;21089;-84
2021/07/14 10:58:24;;;;;;;11.28;8.50;;;;;;;35.21;33.33;97416.58;1720180;83;21567;-87
2021/07/14 11:00:51;;;;;;;8.83;7.92;;;;;;;35.58;30.22;97413.20;1730862;82;21119;-85
2021/07/14 11:03:40;;;;;;;9.90;8.85;;;;;;;36.04;29.62;97408.42;1744755;82;21001;-85
2021/07/14 11:06:12;;;;;;;12.70;9.40;;;;;;;36.58;29.42;97406.58;1737175;82;21022;-83
2021/07/14 11:08:49;;;;;;;10.13;8.80;;;;;;;37.35;30.98;97411.36;1730605;82;20979;-83
2021/07/14 11:11:19;;;;;;;13.00;8.18;;;;;;;37.90;28.03;97415.61;1734075;82;21426;-85
2021/07/14 11:14:07;;;;;;;9.80;7.92;;;;;;;38.33;28.36;97406.72;1740305;82;20981;-85
2021/07/14 11:16:36;;;;;;;9.55;8.65;;;;;;;38.80;28.04;97410.03;1732105;82;20977;-85
2021/07/14 11:19:13;;;;;;;8.95;8.05;;;;;;;39.30;26.72;97406.37;1733063;82;21044;-86
2021/07/14 11:21:52;;;;;;;8.88;7.95;;;;;;;39.57;24.98;97406.34;1731211;82;21438;-87
2021/07/14 11:24:46;;;;;;;8.35;7.40;;;;;;;39.68;25.37;97398.50;1742017;82;21434;-92
2021/07/14 11:27:31;;;;;;;12.15;7.47;;;;;;;39.89;25.23;97394.70;1721397;82;20965;-94
2021/07/14 11:30:07;;;;;;;9.08;8.18;;;;;;;40.14;25.11;97393.50;1718643;82;21016;-89
2021/07/14 11:32:40;;;;;;;8.43;7.60;;;;;;;40.36;23.75;97390.78;1726186;82;21024;-92
2021/07/14 11:35:20;;;;;;;8.80;8.10;;;;;;;40.76;24.38;97391.63;1720413;83;21036;-92
2021/07/14 11:38:00;;;;;;;7.97;7.28;;;;;;;40.89;22.92;97394.61;1729273;82;21067;-88
2021/07/14 11:40:39;;;;;;;8.33;7.58;;;;;;;40.98;22.74;97390.00;1732786;82;20974;-85